createdAt,value
2023-02-11T00:00:50.609Z,37.60
2023-02-11T00:03:26.046Z,35.00
2023-02-11T00:05:53.632Z,33.70
2023-02-11T00:08:21.177Z,27.40
2023-02-11T00:10:49.070Z,27.00
2023-02-11T00:13:16.763Z,24.50
2023-02-11T00:15:44.385Z,23.80
2023-02-11T00:18:11.906Z,23.30
2023-02-11T00:20:39.436Z,24.00
2023-02-11T00:23:07.047Z,27.60
2023-02-11T00:25:34.716Z,32.50
2023-02-11T00:28:02.229Z,33.80
2023-02-11T00:30:30.208Z,37.00
2023-02-11T00:32:57.764Z,36.40
2023-02-11T00:35:25.246Z,36.40
2023-02-11T00:37:52.935Z,34.90
2023-02-11T00:40:20.564Z,38.80
2023-02-11T00:42:48.071Z,37.00
2023-02-11T00:45:15.614Z,36.90
2023-02-11T00:47:43.389Z,33.90
2023-02-11T00:50:10.896Z,25.00
2023-02-11T00:52:38.529Z,27.80
2023-02-11T00:55:06.089Z,26.80
2023-02-11T00:57:33.697Z,27.30
2023-02-11T01:00:01.181Z,26.50
2023-02-11T01:02:28.966Z,26.00
2023-02-11T01:04:56.512Z,28.70
2023-02-11T01:07:24.044Z,24.60
2023-02-11T01:09:51.916Z,25.40
2023-02-11T01:12:19.442Z,23.20
2023-02-11T01:14:46.940Z,24.10
2023-02-11T01:17:14.769Z,24.30
2023-02-11T01:19:42.241Z,24.60
2023-02-11T01:22:09.712Z,22.20
2023-02-11T01:24:37.398Z,22.70
2023-02-11T01:27:04.871Z,25.30
2023-02-11T01:29:32.415Z,23.20
2023-02-11T01:32:00.294Z,26.50
2023-02-11T01:34:27.929Z,25.30
2023-02-11T01:36:58.157Z,24.50
2023-02-11T01:39:25.962Z,27.60
2023-02-11T01:41:53.549Z,29.10
2023-02-11T01:44:21.062Z,27.20
2023-02-11T01:46:48.632Z,26.80
2023-02-11T01:49:16.253Z,29.70
2023-02-11T01:51:43.846Z,30.20
2023-02-11T01:54:30.309Z,29.30
2023-02-11T01:57:16.575Z,28.70
2023-02-11T01:59:44.247Z,29.60
2023-02-11T02:02:11.789Z,31.70
2023-02-11T02:04:39.265Z,32.10
2023-02-11T02:07:07.125Z,29.60
2023-02-11T02:09:34.705Z,29.10
2023-02-11T02:12:02.209Z,29.40
2023-02-11T02:14:29.758Z,28.20
2023-02-11T02:16:57.274Z,29.90
2023-02-11T02:19:24.750Z,28.10
2023-02-11T02:21:52.234Z,30.00
2023-02-11T02:24:19.851Z,29.80
2023-02-11T02:26:47.692Z,26.80
2023-02-11T02:29:15.312Z,27.00
2023-02-11T02:31:42.993Z,27.00
2023-02-11T02:34:10.805Z,26.90
2023-02-11T02:36:38.376Z,25.80
2023-02-11T02:39:05.870Z,25.30
2023-02-11T02:41:33.729Z,24.40
2023-02-11T02:44:01.333Z,21.10
2023-02-11T02:46:28.949Z,21.50
2023-02-11T02:48:56.769Z,19.70
2023-02-11T02:51:24.365Z,19.00
2023-02-11T02:53:51.869Z,19.10
2023-02-11T02:56:19.394Z,16.20
2023-02-11T02:58:47.403Z,13.80
2023-02-11T03:01:15.172Z,16.20
2023-02-11T03:03:43.342Z,12.90
2023-02-11T03:06:11.057Z,12.40
2023-02-11T03:08:38.544Z,13.50
2023-02-11T03:11:06.061Z,14.10
2023-02-11T03:13:34.056Z,17.20
2023-02-11T03:16:01.649Z,14.20
2023-02-11T03:18:29.350Z,17.00
2023-02-11T03:20:57.478Z,16.30
2023-02-11T03:23:25.026Z,15.30
2023-02-11T03:25:52.676Z,18.70
2023-02-11T03:28:20.301Z,17.30
2023-02-11T03:30:48.051Z,16.80
2023-02-11T03:33:15.660Z,17.20
2023-02-11T03:35:43.326Z,14.80
2023-02-11T03:38:10.900Z,6.20
2023-02-11T03:40:38.353Z,15.70
2023-02-11T03:43:06.096Z,17.00
2023-02-11T03:45:33.685Z,16.10
2023-02-11T03:48:01.305Z,16.20
2023-02-11T03:50:28.874Z,9.10
2023-02-11T03:52:56.868Z,15.10
2023-02-11T03:55:25.954Z,16.10
2023-02-11T03:57:53.484Z,17.30
2023-02-11T04:00:20.975Z,17.60
2023-02-11T04:02:48.656Z,18.90
2023-02-11T04:05:16.288Z,17.10
2023-02-11T04:07:43.798Z,9.10
2023-02-11T04:10:11.265Z,19.20
2023-02-11T04:12:38.876Z,20.40
2023-02-11T04:15:06.348Z,19.10
2023-02-11T04:17:33.989Z,14.90
2023-02-11T04:20:01.677Z,5.70
2023-02-11T04:22:29.176Z,9.70
2023-02-11T04:24:56.686Z,16.90
2023-02-11T04:27:24.326Z,9.10
2023-02-11T04:29:51.854Z,16.30
2023-02-11T04:32:19.416Z,17.00
2023-02-11T04:34:47.609Z,16.30
2023-02-11T04:37:15.079Z,18.40
2023-02-11T04:39:42.579Z,15.40
2023-02-11T04:42:10.123Z,14.90
2023-02-11T04:44:37.725Z,13.20
2023-02-11T04:47:05.374Z,11.60
2023-02-11T04:49:32.882Z,12.30
2023-02-11T04:52:00.416Z,11.20
2023-02-11T04:54:27.884Z,6.90
2023-02-11T04:56:55.640Z,8.40
2023-02-11T04:59:23.198Z,12.60
2023-02-11T05:01:50.729Z,12.20
2023-02-11T05:04:18.341Z,12.00
2023-02-11T05:06:46.050Z,13.00
2023-02-11T05:09:13.582Z,11.10
2023-02-11T05:11:41.088Z,13.90
2023-02-11T05:14:08.579Z,7.90
2023-02-11T05:16:36.129Z,14.70
2023-02-11T05:19:03.814Z,18.20
2023-02-11T05:21:31.300Z,15.40
2023-02-11T05:23:58.877Z,17.80
2023-02-11T05:26:26.821Z,18.00
2023-02-11T05:28:54.441Z,16.00
2023-02-11T05:31:22.178Z,17.40
2023-02-11T05:33:49.762Z,17.00
2023-02-11T05:36:17.305Z,18.60
2023-02-11T05:38:44.850Z,17.40
2023-02-11T05:41:12.616Z,18.20
2023-02-11T05:43:40.220Z,15.60
2023-02-11T05:46:08.037Z,5.30
2023-02-11T05:48:35.664Z,16.50
2023-02-11T05:51:03.134Z,15.70
2023-02-11T05:53:30.776Z,16.30
2023-02-11T05:55:58.377Z,16.40
2023-02-11T05:58:25.871Z,29.90
2023-02-11T06:00:56.148Z,35.00
2023-02-11T06:03:23.754Z,34.90
2023-02-11T06:05:51.553Z,9.80
2023-02-11T06:08:19.245Z,10.40
2023-02-11T06:10:46.778Z,18.30
2023-02-11T06:13:14.348Z,18.90
2023-02-11T06:15:41.996Z,17.00
2023-02-11T06:18:09.942Z,18.90
2023-02-11T06:20:40.778Z,18.30
2023-02-11T06:23:08.525Z,17.00
2023-02-11T06:25:36.043Z,18.90
2023-02-11T06:28:04.000Z,21.00
2023-02-11T06:30:31.570Z,25.00
2023-02-11T06:32:59.098Z,25.00
2023-02-11T06:35:26.778Z,24.50
2023-02-11T06:37:54.671Z,30.40
2023-02-11T06:40:22.412Z,28.50
2023-02-11T06:42:49.950Z,26.60
2023-02-11T06:45:17.596Z,23.20
2023-02-11T06:47:45.653Z,15.10
2023-02-11T06:50:13.233Z,24.40
2023-02-11T06:52:40.794Z,21.90
2023-02-11T06:55:08.429Z,26.40
2023-02-11T06:57:35.924Z,22.50
2023-02-11T07:00:05.353Z,12.90
2023-02-11T07:02:33.372Z,23.60
2023-02-11T07:05:01.191Z,28.10
2023-02-11T07:07:28.680Z,26.10
2023-02-11T07:09:56.341Z,30.90
2023-02-11T07:12:23.877Z,35.20
2023-02-11T07:14:51.396Z,22.90
2023-02-11T07:17:18.926Z,19.90
2023-02-11T07:19:46.465Z,19.70
2023-02-11T07:22:13.947Z,19.30
2023-02-11T07:24:41.446Z,27.10
2023-02-11T07:27:09.045Z,27.90
2023-02-11T07:29:36.590Z,29.90
2023-02-11T07:32:04.424Z,23.40
2023-02-11T07:34:32.198Z,34.30
2023-02-11T07:36:59.751Z,28.40
2023-02-11T07:39:27.593Z,28.10
2023-02-11T07:41:55.278Z,30.90
2023-02-11T07:44:22.753Z,11.70
2023-02-11T07:46:50.465Z,28.80
2023-02-11T07:49:18.308Z,31.60
2023-02-11T07:51:47.184Z,36.80
2023-02-11T07:54:14.757Z,33.40
2023-02-11T07:56:42.284Z,29.10
2023-02-11T07:59:09.821Z,14.60
2023-02-11T08:01:37.329Z,20.00
2023-02-11T08:04:04.992Z,7.70
2023-02-11T08:06:32.714Z,21.20
2023-02-11T08:09:00.211Z,25.10
2023-02-11T08:11:27.699Z,25.60
2023-02-11T08:13:55.226Z,22.80
2023-02-11T08:16:22.941Z,23.20
2023-02-11T08:18:50.507Z,29.80
2023-02-11T08:21:18.002Z,32.50
2023-02-11T08:23:45.518Z,28.30
2023-02-11T08:26:13.275Z,24.60
2023-02-11T08:28:40.800Z,22.20
2023-02-11T08:31:08.465Z,21.80
2023-02-11T08:33:36.157Z,17.30
2023-02-11T08:36:03.800Z,16.90
2023-02-11T08:38:31.408Z,17.50
2023-02-11T08:40:58.865Z,19.00
2023-02-11T08:43:26.402Z,13.50
2023-02-11T08:45:54.271Z,21.60
2023-02-11T08:48:21.860Z,27.40
2023-02-11T08:50:49.537Z,27.40
2023-02-11T08:53:17.072Z,29.20
2023-02-11T08:55:44.550Z,23.20
2023-02-11T08:58:12.005Z,15.40
2023-02-11T09:00:39.502Z,6.40
2023-02-11T09:03:06.955Z,5.30
2023-02-11T09:05:34.449Z,5.10
2023-02-11T09:08:01.942Z,4.10
2023-02-11T09:10:29.390Z,3.90
2023-02-11T09:12:56.858Z,4.50
2023-02-11T09:15:24.523Z,3.80
2023-02-11T09:17:51.985Z,4.00
2023-02-11T09:20:19.500Z,3.80
2023-02-11T09:22:47.094Z,2.70
2023-02-11T09:25:14.570Z,3.10
2023-02-11T09:27:42.048Z,3.30
2023-02-11T09:30:09.632Z,4.70
2023-02-11T09:32:37.159Z,4.30
2023-02-11T09:35:04.650Z,4.40
2023-02-11T09:37:32.206Z,4.40
2023-02-11T09:39:59.664Z,5.80
2023-02-11T09:42:27.236Z,4.10
2023-02-11T09:44:54.851Z,3.80
2023-02-11T09:47:22.369Z,3.00
2023-02-11T09:49:49.934Z,2.90
2023-02-11T09:52:17.866Z,4.90
2023-02-11T09:54:45.369Z,5.60
2023-02-11T09:57:27.725Z,5.70
2023-02-11T09:59:56.101Z,5.10
2023-02-11T10:02:23.614Z,4.20
2023-02-11T10:04:51.367Z,5.00
2023-02-11T10:07:18.888Z,4.70
2023-02-11T10:09:46.364Z,4.20
2023-02-11T10:12:13.840Z,5.70
2023-02-11T10:14:41.492Z,7.00
2023-02-11T10:17:09.077Z,5.10
2023-02-11T10:19:36.665Z,7.20
2023-02-11T10:22:04.179Z,5.90
2023-02-11T10:24:31.646Z,5.00
2023-02-11T10:26:59.216Z,5.50
2023-02-11T10:29:26.940Z,5.30
2023-02-11T10:31:56.568Z,5.70
2023-02-11T10:34:25.950Z,5.90
2023-02-11T10:36:53.641Z,5.20
2023-02-11T10:39:21.257Z,4.60
2023-02-11T10:41:48.707Z,5.50
2023-02-11T10:44:16.329Z,5.40
2023-02-11T10:46:43.926Z,4.40
2023-02-11T10:49:11.680Z,5.40
2023-02-11T10:51:39.258Z,6.40
2023-02-11T10:54:08.292Z,5.50
2023-02-11T10:56:35.764Z,3.50
2023-02-11T10:59:03.555Z,6.60
2023-02-11T11:01:31.049Z,6.00
2023-02-11T11:04:00.043Z,5.70
2023-02-11T11:06:27.693Z,4.40
2023-02-11T11:08:55.320Z,4.70
2023-02-11T11:11:22.892Z,3.90
2023-02-11T11:13:50.444Z,5.70
2023-02-11T11:16:18.247Z,7.10
2023-02-11T11:18:45.815Z,5.40
2023-02-11T11:21:13.438Z,7.00
2023-02-11T11:23:41.037Z,6.30
2023-02-11T11:26:08.561Z,4.30
2023-02-11T11:28:38.837Z,6.60
2023-02-11T11:31:06.665Z,5.10
2023-02-11T11:33:34.390Z,6.90
2023-02-11T11:36:02.089Z,5.00
2023-02-11T11:38:29.560Z,5.40
2023-02-11T11:40:57.037Z,6.10
2023-02-11T11:43:24.703Z,6.60
2023-02-11T11:45:52.193Z,6.20
2023-02-11T11:48:19.947Z,5.20
2023-02-11T11:50:47.642Z,4.20
2023-02-11T11:53:15.444Z,4.90
2023-02-11T11:55:43.231Z,5.70
2023-02-11T11:58:10.887Z,4.90
2023-02-11T12:00:38.374Z,6.10
2023-02-11T12:03:06.042Z,4.90
2023-02-11T12:05:33.696Z,6.30
2023-02-11T12:08:02.043Z,6.00
2023-02-11T12:10:29.515Z,6.60
2023-02-11T12:12:57.105Z,5.80
2023-02-11T12:15:24.791Z,4.90
2023-02-11T12:17:52.396Z,4.70
2023-02-11T12:20:19.931Z,6.50
2023-02-11T12:22:47.456Z,4.90
2023-02-11T12:25:15.016Z,5.70
2023-02-11T12:27:42.627Z,5.40
2023-02-11T12:30:10.166Z,6.70
2023-02-11T12:32:37.752Z,4.90
2023-02-11T12:35:05.341Z,7.70
2023-02-11T12:37:32.857Z,5.10
2023-02-11T12:40:00.328Z,6.30
2023-02-11T12:42:46.636Z,5.90
2023-02-11T12:45:14.591Z,5.80
2023-02-11T12:47:42.375Z,6.10
2023-02-11T12:50:10.016Z,4.10
2023-02-11T12:52:37.536Z,5.40
2023-02-11T12:55:06.035Z,5.90
2023-02-11T12:57:33.884Z,6.30
2023-02-11T13:00:01.363Z,4.30
2023-02-11T13:02:29.175Z,7.40
2023-02-11T13:04:57.017Z,5.70
2023-02-11T13:07:24.577Z,6.30
2023-02-11T13:09:52.031Z,6.50
2023-02-11T13:12:38.518Z,7.90
2023-02-11T13:15:06.240Z,6.60
2023-02-11T13:17:34.351Z,7.00
2023-02-11T13:20:01.923Z,5.60
2023-02-11T13:22:29.450Z,6.20
2023-02-11T13:24:57.026Z,7.40
2023-02-11T13:27:24.639Z,6.00
2023-02-11T13:29:52.104Z,6.10
2023-02-11T13:32:19.695Z,6.00
2023-02-11T13:34:47.450Z,5.90
2023-02-11T13:37:15.218Z,6.40
2023-02-11T13:39:42.980Z,6.30
2023-02-11T13:42:10.721Z,7.40
2023-02-11T13:44:38.508Z,6.10
2023-02-11T13:47:06.382Z,6.50
2023-02-11T13:49:34.165Z,7.30
2023-02-11T13:52:01.939Z,8.00
2023-02-11T13:54:29.493Z,6.50
2023-02-11T13:56:57.045Z,7.20
2023-02-11T13:59:27.707Z,7.70
2023-02-11T14:02:14.401Z,7.90
2023-02-11T14:05:00.728Z,8.60
2023-02-11T14:07:47.200Z,8.30
2023-02-11T14:10:14.648Z,8.30
2023-02-11T14:12:42.522Z,6.30
2023-02-11T14:15:10.320Z,9.00
2023-02-11T14:17:38.103Z,7.50
2023-02-11T14:20:05.788Z,7.90
2023-02-11T14:22:33.449Z,7.00
2023-02-11T14:25:01.274Z,8.40
2023-02-11T14:27:28.837Z,8.50
2023-02-11T14:29:56.470Z,8.00
2023-02-11T14:32:24.408Z,7.30
2023-02-11T14:34:52.101Z,7.20
2023-02-11T14:37:19.606Z,6.10
2023-02-11T14:39:47.152Z,5.90
2023-02-11T14:42:14.644Z,6.80
2023-02-11T14:44:42.136Z,8.90
2023-02-11T14:47:09.795Z,7.70
2023-02-11T14:49:37.320Z,8.70
2023-02-11T14:52:04.977Z,8.10
2023-02-11T14:54:32.604Z,10.60
2023-02-11T14:57:00.081Z,8.90
2023-02-11T14:59:27.760Z,11.20
2023-02-11T15:01:55.995Z,9.50
2023-02-11T15:04:23.722Z,5.90
2023-02-11T15:06:51.479Z,6.00
2023-02-11T15:09:19.000Z,7.00
2023-02-11T15:11:46.731Z,9.00
2023-02-11T15:14:14.243Z,10.00
2023-02-11T15:16:41.737Z,9.10
2023-02-11T15:19:09.258Z,10.10
2023-02-11T15:21:37.123Z,8.10
2023-02-11T15:24:06.260Z,8.30
2023-02-11T15:26:34.116Z,9.20
2023-02-11T15:29:02.026Z,9.80
2023-02-11T15:31:32.514Z,8.00
2023-02-11T15:34:02.446Z,8.50
2023-02-11T15:36:33.083Z,7.20
2023-02-11T15:39:00.572Z,8.70
2023-02-11T15:41:28.478Z,8.70
2023-02-11T15:43:56.268Z,8.20
2023-02-11T15:46:24.110Z,8.10
2023-02-11T15:48:51.809Z,7.80
2023-02-11T15:51:20.990Z,7.20
2023-02-11T15:53:48.479Z,7.80
2023-02-11T15:56:16.064Z,7.70
2023-02-11T15:58:43.633Z,7.50
2023-02-11T16:01:11.213Z,7.80
2023-02-11T16:03:38.960Z,7.60
2023-02-11T16:06:06.599Z,7.00
2023-02-11T16:08:35.445Z,6.20
2023-02-11T16:11:03.518Z,8.70
2023-02-11T16:13:33.794Z,7.60
2023-02-11T16:16:02.645Z,8.20
2023-02-11T16:18:37.673Z,9.10
2023-02-11T16:21:06.337Z,11.30
2023-02-11T16:23:33.862Z,9.30
2023-02-11T16:26:01.748Z,11.40
2023-02-11T16:28:29.795Z,10.50
2023-02-11T16:30:59.312Z,13.80
2023-02-11T16:33:29.050Z,10.40
2023-02-11T16:35:58.018Z,9.90
2023-02-11T16:38:25.784Z,19.60
2023-02-11T16:40:53.843Z,13.70
2023-02-11T16:43:21.597Z,10.30
2023-02-11T16:45:49.590Z,8.60
2023-02-11T16:48:18.364Z,9.00
2023-02-11T16:50:46.685Z,7.60
2023-02-11T16:53:14.905Z,9.00
2023-02-11T16:55:42.681Z,7.20
2023-02-11T16:58:10.260Z,9.40
2023-02-11T17:00:37.892Z,9.40
2023-02-11T17:03:05.683Z,6.90
2023-02-11T17:05:45.760Z,10.80
2023-02-11T17:08:20.920Z,9.10
2023-02-11T17:10:48.841Z,8.20
2023-02-11T17:13:16.686Z,9.00
2023-02-11T17:15:44.445Z,8.60
2023-02-11T17:18:11.960Z,9.60
2023-02-11T17:20:39.666Z,9.50
2023-02-11T17:23:07.409Z,9.90
2023-02-11T17:25:37.442Z,10.20
2023-02-11T17:28:05.189Z,7.60
2023-02-11T17:30:33.120Z,9.70
2023-02-11T17:33:00.872Z,11.80
2023-02-11T17:35:28.468Z,29.60
2023-02-11T17:37:56.470Z,17.50
2023-02-11T17:40:24.395Z,12.30
2023-02-11T17:42:51.904Z,14.00
2023-02-11T17:45:22.183Z,15.30
2023-02-11T17:47:50.025Z,13.60
2023-02-11T17:50:17.567Z,11.60
2023-02-11T17:52:45.525Z,8.40
2023-02-11T17:55:13.417Z,10.20
2023-02-11T17:57:41.314Z,12.00
2023-02-11T18:00:09.206Z,12.10
2023-02-11T18:02:36.993Z,11.80
2023-02-11T18:05:05.536Z,10.50
2023-02-11T18:07:33.375Z,11.80
2023-02-11T18:10:01.093Z,13.00
2023-02-11T18:12:28.700Z,10.70
2023-02-11T18:14:58.172Z,10.20
2023-02-11T18:17:25.836Z,10.20
2023-02-11T18:19:53.347Z,10.20
2023-02-11T18:22:21.059Z,9.90
2023-02-11T18:24:48.714Z,18.60
2023-02-11T18:27:16.358Z,15.30
2023-02-11T18:29:44.462Z,13.40
2023-02-11T18:32:12.234Z,10.30
2023-02-11T18:34:39.787Z,9.80
2023-02-11T18:37:07.444Z,11.90
2023-02-11T18:39:34.922Z,14.70
2023-02-11T18:42:02.617Z,12.90
2023-02-11T18:44:30.431Z,9.40
2023-02-11T18:46:57.975Z,9.00
2023-02-11T18:49:25.682Z,13.00
2023-02-11T18:51:53.230Z,9.40
2023-02-11T18:54:23.746Z,10.80
2023-02-11T18:56:51.314Z,9.40
2023-02-11T18:59:19.102Z,8.90
2023-02-11T19:01:47.158Z,6.80
2023-02-11T19:04:20.104Z,7.40
2023-02-11T19:06:47.955Z,5.90
2023-02-11T19:09:15.836Z,8.00
2023-02-11T19:11:54.597Z,16.00
2023-02-11T19:14:22.474Z,11.30
2023-02-11T19:16:51.452Z,14.10
2023-02-11T19:19:19.526Z,10.60
2023-02-11T19:21:47.804Z,10.20
2023-02-11T19:24:24.409Z,9.00
2023-02-11T19:26:52.282Z,9.90
2023-02-11T19:29:20.036Z,14.10
2023-02-11T19:31:48.121Z,9.60
2023-02-11T19:34:16.812Z,9.00
2023-02-11T19:36:44.527Z,6.90
2023-02-11T19:39:12.507Z,9.60
2023-02-11T19:41:39.965Z,10.20
2023-02-11T19:44:08.024Z,10.10
2023-02-11T19:46:36.067Z,7.20
2023-02-11T19:49:03.651Z,9.40
2023-02-11T19:51:32.755Z,8.00
2023-02-11T19:54:00.470Z,8.00
2023-02-11T19:56:31.305Z,8.90
2023-02-11T19:58:58.882Z,11.70
2023-02-11T20:01:26.490Z,10.90
2023-02-11T20:03:54.355Z,14.30
2023-02-11T20:06:23.605Z,11.10
2023-02-11T20:08:51.452Z,11.50
2023-02-11T20:11:19.631Z,9.10
2023-02-11T20:13:47.204Z,8.90
2023-02-11T20:16:16.990Z,12.60
2023-02-11T20:18:44.595Z,8.80
2023-02-11T20:21:12.165Z,7.40
2023-02-11T20:23:40.717Z,8.40
2023-02-11T20:26:08.240Z,10.30
2023-02-11T20:28:36.140Z,11.40
2023-02-11T20:31:03.942Z,16.60
2023-02-11T20:33:31.915Z,10.50
2023-02-11T20:35:59.757Z,8.50
2023-02-11T20:38:27.340Z,10.50
2023-02-11T20:40:55.128Z,8.80
2023-02-11T20:43:22.968Z,8.00
2023-02-11T20:45:50.814Z,11.10
2023-02-11T20:48:18.653Z,13.30
2023-02-11T20:50:48.320Z,13.10
2023-02-11T20:53:16.027Z,10.70
2023-02-11T20:55:43.773Z,16.90
2023-02-11T20:58:11.652Z,15.90
2023-02-11T21:00:39.860Z,13.00
2023-02-11T21:03:07.522Z,15.50
2023-02-11T21:05:36.067Z,10.40
2023-02-11T21:08:05.779Z,11.90
2023-02-11T21:10:33.309Z,10.50
2023-02-11T21:13:03.012Z,8.50
2023-02-11T21:15:30.641Z,6.70
2023-02-11T21:17:58.377Z,8.70
2023-02-11T21:20:25.996Z,7.70
2023-02-11T21:22:53.762Z,7.80
2023-02-11T21:25:22.505Z,8.30
2023-02-11T21:27:50.294Z,8.90
2023-02-11T21:30:18.276Z,11.60
2023-02-11T21:32:46.151Z,10.50
2023-02-11T21:35:14.735Z,12.40
2023-02-11T21:37:42.363Z,11.70
2023-02-11T21:40:09.977Z,8.70
2023-02-11T21:42:37.514Z,9.60
2023-02-11T21:45:05.136Z,8.00
2023-02-11T21:47:32.860Z,10.70
2023-02-11T21:50:00.360Z,9.30
2023-02-11T21:52:27.941Z,8.40
2023-02-11T21:54:55.542Z,11.10
2023-02-11T21:57:23.284Z,10.70
2023-02-11T21:59:52.949Z,9.90
2023-02-11T22:02:20.479Z,11.50
2023-02-11T22:04:48.250Z,7.90
2023-02-11T22:07:15.957Z,10.00
2023-02-11T22:09:43.719Z,12.60
2023-02-11T22:12:11.280Z,14.70
2023-02-11T22:14:38.930Z,12.10
2023-02-11T22:17:06.586Z,7.50
2023-02-11T22:19:34.342Z,6.90
2023-02-11T22:22:02.190Z,6.30
2023-02-11T22:24:29.797Z,6.80
2023-02-11T22:26:57.322Z,6.30
2023-02-11T22:29:24.858Z,6.80
2023-02-11T22:31:52.335Z,6.50
2023-02-11T22:34:20.189Z,6.70
2023-02-11T22:36:47.853Z,4.50
2023-02-11T22:39:15.346Z,3.60
2023-02-11T22:41:42.857Z,2.20
2023-02-11T22:44:10.417Z,3.50
2023-02-11T22:46:37.945Z,4.20
2023-02-11T22:49:05.537Z,3.90
2023-02-11T22:51:33.170Z,4.20
2023-02-11T22:54:00.684Z,4.30
2023-02-11T22:56:28.254Z,4.90
2023-02-11T22:58:55.801Z,4.20
2023-02-11T23:01:23.295Z,4.30
2023-02-11T23:03:50.928Z,4.30
2023-02-11T23:06:18.549Z,3.70
2023-02-11T23:08:46.044Z,3.20
2023-02-11T23:11:13.565Z,3.00
2023-02-11T23:13:41.115Z,3.40
2023-02-11T23:16:08.846Z,2.90
2023-02-11T23:18:36.837Z,3.30
2023-02-11T23:21:04.767Z,4.30
2023-02-11T23:23:32.241Z,3.90
2023-02-11T23:25:59.773Z,4.30
2023-02-11T23:28:27.360Z,3.90
2023-02-11T23:30:55.033Z,3.80
2023-02-11T23:33:22.609Z,3.10
2023-02-11T23:35:50.398Z,3.10
2023-02-11T23:38:18.043Z,2.50
2023-02-11T23:40:45.705Z,3.90
2023-02-11T23:43:13.295Z,3.40
2023-02-11T23:45:40.866Z,4.40
2023-02-11T23:48:08.435Z,3.50
2023-02-11T23:50:36.122Z,3.00
2023-02-11T23:53:03.636Z,3.50
2023-02-11T23:55:31.424Z,3.90
2023-02-11T23:57:58.992Z,4.30
